Isabella, Tennessee
Current Conditions -  °F | °C
As of 10:55 PM on Tuesday 25 Nov 2014 (Local Time) from KRZR Reporting Station
Clear Clear  
Wind Chill: 46°   Ceiling: Unl
Heat Index: 46°   Visibility: 10mi
Dew Point: 30°   Wind: 3mph
Humidity: 53%   Direction: 10°N
Pressure: 30.07"   Gusts: NA
Location:  35.0276°N, 84.3551°W
Report Text: KRZR 260355Z AUTO 01003KT 10SM CLR 08/M01 A3007 RMK
Loading
Personal Weather Stations






























Interactive Weather Map New forecast layout! Learn more

10-Day Weather Forecast

Advertisements
Track Severe Weather on mobile